createdAt,value
2022-12-10T00:00:58.779Z,42.70
2022-12-10T00:03:39.675Z,42.37
2022-12-10T00:06:12.406Z,48.10
2022-12-10T00:08:44.579Z,44.67
2022-12-10T00:11:31.186Z,39.97
2022-12-10T00:14:01.422Z,44.63
2022-12-10T00:16:37.058Z,46.70
2022-12-10T00:19:17.256Z,49.07
2022-12-10T00:21:57.557Z,49.53
2022-12-10T00:24:31.242Z,52.83
2022-12-10T00:33:00.198Z,52.00
2022-12-10T00:35:40.050Z,49.60
2022-12-10T00:38:17.935Z,40.83
2022-12-10T00:44:15.572Z,42.93
2022-12-10T00:46:56.206Z,49.00
2022-12-10T00:49:41.219Z,58.17
2022-12-10T00:52:15.568Z,45.33
2022-12-10T00:54:54.764Z,52.40
2022-12-10T00:57:23.120Z,43.17
2022-12-10T01:00:00.624Z,48.00
2022-12-10T01:02:29.715Z,49.23
2022-12-10T01:05:03.023Z,53.43
2022-12-10T01:07:32.495Z,48.30
2022-12-10T01:10:21.490Z,49.63
2022-12-10T01:12:51.860Z,49.63
2022-12-10T01:15:42.934Z,47.80
2022-12-10T01:21:31.131Z,49.00
2022-12-10T01:24:11.719Z,52.77
2022-12-10T01:26:53.936Z,47.53
2022-12-10T01:29:40.826Z,52.03
2022-12-10T01:32:10.995Z,51.80
2022-12-10T01:37:58.392Z,43.67
2022-12-10T01:43:36.688Z,44.53
2022-12-10T01:46:07.781Z,46.57
2022-12-10T01:48:35.919Z,46.43
2022-12-10T01:51:12.723Z,56.60
2022-12-10T01:53:45.079Z,43.40
2022-12-10T01:56:15.769Z,49.23
2022-12-10T01:58:45.396Z,46.10
2022-12-10T02:01:23.651Z,48.57
2022-12-10T02:04:15.822Z,47.83
2022-12-10T02:07:01.536Z,42.97
2022-12-10T02:09:40.844Z,46.63
2022-12-10T02:12:24.842Z,42.27
2022-12-10T02:14:58.524Z,49.77
2022-12-10T02:17:30.805Z,40.13
2022-12-10T02:20:19.510Z,44.63
2022-12-10T02:22:51.109Z,41.93
2022-12-10T02:25:31.114Z,42.93
2022-12-10T02:28:04.517Z,41.83
2022-12-10T02:30:45.261Z,47.00
2022-12-10T02:33:25.771Z,48.73
2022-12-10T02:35:56.780Z,51.20
2022-12-10T02:38:27.525Z,56.50
2022-12-10T02:41:00.490Z,37.57
2022-12-10T02:43:29.983Z,52.13
2022-12-10T02:45:58.390Z,48.23
2022-12-10T02:48:26.239Z,51.03
2022-12-10T02:50:53.166Z,51.67
2022-12-10T02:53:20.151Z,57.10
2022-12-10T02:55:59.877Z,52.83
2022-12-10T02:58:35.287Z,49.53
2022-12-10T03:01:12.902Z,51.07
2022-12-10T03:03:48.047Z,57.47
2022-12-10T03:06:21.427Z,54.47
2022-12-10T03:08:51.270Z,54.23
2022-12-10T03:11:19.627Z,66.90
2022-12-10T03:13:54.229Z,63.60
2022-12-10T03:16:23.458Z,60.37
2022-12-10T03:18:54.390Z,60.53
2022-12-10T03:21:23.261Z,60.83
2022-12-10T03:23:50.799Z,57.30
2022-12-10T03:26:18.896Z,58.07
2022-12-10T03:28:50.726Z,61.67
2022-12-10T03:31:19.475Z,57.33
2022-12-10T03:33:48.222Z,56.47
2022-12-10T03:36:16.623Z,64.30
2022-12-10T03:38:44.039Z,52.37
2022-12-10T03:41:11.051Z,60.37
2022-12-10T03:43:51.091Z,65.03
2022-12-10T03:46:18.055Z,54.00
2022-12-10T03:48:45.059Z,64.03
2022-12-10T03:51:12.393Z,70.00
2022-12-10T03:53:39.369Z,62.90
2022-12-10T03:56:06.390Z,67.67
2022-12-10T03:58:33.320Z,60.57
2022-12-10T04:01:00.408Z,66.60
2022-12-10T04:03:27.345Z,59.30
2022-12-10T04:05:54.317Z,67.03
2022-12-10T04:08:21.679Z,61.23
2022-12-10T04:10:48.639Z,66.43
2022-12-10T04:13:33.878Z,76.83
2022-12-10T04:16:18.984Z,67.30
2022-12-10T04:18:45.916Z,70.70
2022-12-10T04:21:31.305Z,72.60
2022-12-10T04:24:17.662Z,74.93
2022-12-10T04:27:00.806Z,61.90
2022-12-10T04:29:33.303Z,69.50
2022-12-10T04:32:01.073Z,71.83
2022-12-10T04:34:29.003Z,64.23
2022-12-10T04:37:13.913Z,60.40
2022-12-10T04:39:49.585Z,56.63
2022-12-10T04:42:33.540Z,54.50
2022-12-10T04:45:00.934Z,54.83
2022-12-10T04:47:33.293Z,58.17
2022-12-10T04:50:00.370Z,66.47
2022-12-10T04:52:27.437Z,62.87
2022-12-10T04:54:54.795Z,61.20
2022-12-10T04:57:21.730Z,64.43
2022-12-10T04:59:48.834Z,67.87
2022-12-10T05:02:15.794Z,56.07
2022-12-10T05:04:42.948Z,64.80
2022-12-10T05:07:09.981Z,61.70
2022-12-10T05:09:36.938Z,59.47
2022-12-10T05:12:04.715Z,58.37
2022-12-10T05:14:31.960Z,55.33
2022-12-10T05:16:58.902Z,55.40
2022-12-10T05:19:26.690Z,63.57
2022-12-10T05:22:11.975Z,51.97
2022-12-10T05:24:38.933Z,58.80
2022-12-10T05:27:06.474Z,57.63
2022-12-10T05:29:33.843Z,47.57
2022-12-10T05:32:00.832Z,48.77
2022-12-10T05:34:27.829Z,47.73
2022-12-10T05:36:54.878Z,49.27
2022-12-10T05:39:21.874Z,49.30
2022-12-10T05:41:48.838Z,46.27
2022-12-10T05:44:16.147Z,48.27
2022-12-10T05:46:43.136Z,49.87
2022-12-10T05:49:10.142Z,49.33
2022-12-10T05:51:38.179Z,50.30
2022-12-10T05:54:06.206Z,46.30
2022-12-10T05:56:33.284Z,43.63
2022-12-10T05:59:02.159Z,47.27
2022-12-10T06:01:31.318Z,40.27
2022-12-10T06:03:58.644Z,37.90
2022-12-10T06:06:27.581Z,47.40
2022-12-10T06:08:54.671Z,45.50
2022-12-10T06:11:22.005Z,40.47
2022-12-10T06:13:54.530Z,37.67
2022-12-10T06:16:23.324Z,41.67
2022-12-10T06:18:50.949Z,44.83
2022-12-10T06:21:18.704Z,41.77
2022-12-10T06:23:46.090Z,46.63
2022-12-10T06:26:15.180Z,41.63
2022-12-10T06:28:42.305Z,38.00
2022-12-10T06:31:09.416Z,37.83
2022-12-10T06:33:36.379Z,44.97
2022-12-10T06:36:05.765Z,40.43
2022-12-10T06:38:32.770Z,38.83
2022-12-10T06:40:59.763Z,37.63
2022-12-10T06:43:29.688Z,34.00
2022-12-10T06:45:56.772Z,33.10
2022-12-10T06:48:23.733Z,41.67
2022-12-10T06:50:50.768Z,37.03
2022-12-10T06:53:18.160Z,35.30
2022-12-10T06:55:45.073Z,36.03
2022-12-10T06:58:12.028Z,34.23
2022-12-10T07:00:38.988Z,34.43
2022-12-10T07:03:05.817Z,37.90
2022-12-10T07:05:32.635Z,35.40
2022-12-10T07:07:59.630Z,36.63
2022-12-10T07:10:26.980Z,32.13
2022-12-10T07:12:53.940Z,34.87
2022-12-10T07:15:21.052Z,33.87
2022-12-10T07:17:48.124Z,32.43
2022-12-10T07:20:15.186Z,36.80
2022-12-10T07:22:42.160Z,34.97
2022-12-10T07:25:09.410Z,32.27
2022-12-10T07:27:37.619Z,35.33
2022-12-10T07:30:04.955Z,35.83
2022-12-10T07:32:31.890Z,35.37
2022-12-10T07:34:59.041Z,31.93
2022-12-10T07:37:26.077Z,33.10
2022-12-10T07:39:53.054Z,28.40
2022-12-10T07:42:20.023Z,33.70
2022-12-10T07:44:49.788Z,38.03
2022-12-10T07:47:17.082Z,31.30
2022-12-10T07:49:44.023Z,29.10
2022-12-10T07:52:11.002Z,30.03
2022-12-10T07:54:38.091Z,32.20
2022-12-10T07:57:05.071Z,28.57
2022-12-10T07:59:31.995Z,28.77
2022-12-10T08:02:04.153Z,31.27
2022-12-10T08:04:34.139Z,30.57
2022-12-10T08:07:01.074Z,26.77
2022-12-10T08:09:28.040Z,27.20
2022-12-10T08:11:54.983Z,40.30
2022-12-10T08:14:21.949Z,28.13
2022-12-10T08:16:48.904Z,31.00
2022-12-10T08:19:21.445Z,30.80
2022-12-10T08:21:55.527Z,26.33
2022-12-10T08:24:22.453Z,28.90
2022-12-10T08:26:49.386Z,29.60
2022-12-10T08:29:16.383Z,31.43
2022-12-10T08:31:43.562Z,30.63
2022-12-10T08:34:13.452Z,36.23
2022-12-10T08:36:40.419Z,28.37
2022-12-10T08:39:07.731Z,38.10
2022-12-10T08:41:34.717Z,38.37
2022-12-10T08:44:01.666Z,31.70
2022-12-10T08:46:28.894Z,30.30
2022-12-10T08:48:55.880Z,34.97
2022-12-10T08:51:23.100Z,29.97
2022-12-10T08:53:50.062Z,31.40
2022-12-10T08:56:17.731Z,32.87
2022-12-10T08:58:44.772Z,42.60
2022-12-10T09:01:13.855Z,28.13
2022-12-10T09:03:41.150Z,38.10
2022-12-10T09:06:11.038Z,32.40
2022-12-10T09:08:38.453Z,34.83
2022-12-10T09:11:06.831Z,38.27
2022-12-10T09:13:34.263Z,42.10
2022-12-10T09:16:01.339Z,31.67
2022-12-10T09:18:28.431Z,38.20
2022-12-10T09:20:55.245Z,30.53
2022-12-10T09:23:22.185Z,40.83
2022-12-10T09:25:49.155Z,39.87
2022-12-10T09:28:16.313Z,39.73
2022-12-10T09:30:43.694Z,33.73
2022-12-10T09:33:10.936Z,32.20
2022-12-10T09:35:41.433Z,31.27
2022-12-10T09:38:08.472Z,31.93
2022-12-10T09:40:42.384Z,37.30
2022-12-10T09:43:19.687Z,34.23
2022-12-10T09:46:03.887Z,39.67
2022-12-10T09:48:40.690Z,43.83
2022-12-10T09:51:13.210Z,37.60
2022-12-10T09:53:43.347Z,37.10
2022-12-10T09:56:18.682Z,38.87
2022-12-10T09:58:45.615Z,39.83
2022-12-10T10:01:16.707Z,32.83
2022-12-10T10:03:46.949Z,32.80
2022-12-10T10:06:16.986Z,35.27
2022-12-10T10:08:46.543Z,42.57
2022-12-10T10:11:17.759Z,38.33
2022-12-10T10:13:49.956Z,34.70
2022-12-10T10:16:24.697Z,34.33
2022-12-10T10:18:56.465Z,32.20
2022-12-10T10:21:25.454Z,33.43
2022-12-10T10:23:53.301Z,38.70
2022-12-10T10:26:20.348Z,32.63
2022-12-10T10:28:56.942Z,33.93
2022-12-10T10:31:26.739Z,35.57
2022-12-10T10:33:57.073Z,34.00
2022-12-10T10:36:25.757Z,36.33
2022-12-10T10:38:52.728Z,35.50
2022-12-10T10:41:20.089Z,38.70
2022-12-10T10:43:47.751Z,35.70
2022-12-10T10:46:16.756Z,37.63
2022-12-10T10:48:44.676Z,29.33
2022-12-10T10:51:20.773Z,35.03
2022-12-10T10:53:50.483Z,34.73
2022-12-10T10:56:21.317Z,33.07
2022-12-10T10:58:54.030Z,34.30
2022-12-10T11:01:21.259Z,35.63
2022-12-10T11:03:50.981Z,37.53
2022-12-10T11:06:18.680Z,32.17
2022-12-10T11:08:48.375Z,36.83
2022-12-10T11:11:21.097Z,36.80
2022-12-10T11:13:48.256Z,36.73
2022-12-10T11:16:20.551Z,42.07
2022-12-10T11:19:02.671Z,34.30
2022-12-10T11:21:31.280Z,33.57
2022-12-10T11:23:59.783Z,36.90
2022-12-10T11:26:55.550Z,35.30
2022-12-10T11:29:40.787Z,38.87
2022-12-10T11:32:28.081Z,38.60
2022-12-10T11:35:11.194Z,40.37
2022-12-10T11:37:42.675Z,43.57
2022-12-10T11:40:35.621Z,35.93
2022-12-10T11:43:26.009Z,32.50
2022-12-10T11:46:02.155Z,35.53
2022-12-10T11:48:48.529Z,32.50
2022-12-10T11:51:24.880Z,39.80
2022-12-10T11:54:04.930Z,38.77
2022-12-10T11:56:35.076Z,36.33
2022-12-10T11:59:13.791Z,35.53
2022-12-10T12:02:08.733Z,28.70
2022-12-10T12:04:51.690Z,37.43
2022-12-10T12:07:36.732Z,38.87
2022-12-10T12:10:53.832Z,35.77
2022-12-10T12:14:07.915Z,35.63
2022-12-10T12:16:49.990Z,35.07
2022-12-10T12:19:24.716Z,34.83
2022-12-10T12:21:57.058Z,33.97
2022-12-10T12:24:35.687Z,41.03
2022-12-10T12:27:19.623Z,45.30
2022-12-10T12:29:56.478Z,39.87
2022-12-10T12:32:29.854Z,38.70
2022-12-10T12:35:05.828Z,42.83
2022-12-10T12:37:39.033Z,33.80
2022-12-10T12:40:14.187Z,33.63
2022-12-10T12:42:48.566Z,39.50
2022-12-10T12:45:25.407Z,33.60
2022-12-10T12:48:02.722Z,40.27
2022-12-10T12:50:43.731Z,34.43
2022-12-10T12:53:14.005Z,34.57
2022-12-10T12:55:50.111Z,33.30
2022-12-10T12:58:27.366Z,32.33
2022-12-10T13:00:59.380Z,40.17
2022-12-10T13:03:34.962Z,35.07
2022-12-10T13:06:19.920Z,33.90
2022-12-10T13:08:49.400Z,33.53
2022-12-10T13:11:19.677Z,34.70
2022-12-10T13:14:34.276Z,33.10
2022-12-10T13:17:24.057Z,31.77
2022-12-10T13:19:52.266Z,38.50
2022-12-10T13:22:44.881Z,34.00
2022-12-10T13:25:15.271Z,34.37
2022-12-10T13:27:43.120Z,36.90
2022-12-10T13:30:35.838Z,38.83
2022-12-10T13:33:21.411Z,33.23
2022-12-10T13:35:57.554Z,50.93
2022-12-10T13:38:26.159Z,38.07
2022-12-10T13:41:24.006Z,38.90
2022-12-10T13:44:18.318Z,43.70
2022-12-10T13:46:57.623Z,48.40
2022-12-10T13:49:27.883Z,37.67
2022-12-10T13:51:59.105Z,40.83
2022-12-10T13:55:04.261Z,32.53
2022-12-10T13:58:01.736Z,40.17
2022-12-10T14:00:39.371Z,38.07
2022-12-10T14:03:36.411Z,51.10
2022-12-10T14:06:17.886Z,42.20
2022-12-10T14:09:02.461Z,41.07
2022-12-10T14:11:37.030Z,41.60
2022-12-10T14:14:07.039Z,42.07
2022-12-10T14:16:38.483Z,46.43
2022-12-10T14:19:07.562Z,42.13
2022-12-10T14:21:36.150Z,54.80
2022-12-10T14:24:03.359Z,36.70
2022-12-10T14:26:32.185Z,45.90
2022-12-10T14:29:01.284Z,48.07
2022-12-10T14:31:32.277Z,42.60
2022-12-10T14:34:02.611Z,48.13
2022-12-10T14:36:32.137Z,38.67
2022-12-10T14:39:00.269Z,46.83
2022-12-10T14:41:31.827Z,51.97
2022-12-10T14:44:04.051Z,49.50
2022-12-10T14:46:32.080Z,49.90
2022-12-10T14:48:59.148Z,39.67
2022-12-10T14:51:32.349Z,55.17
2022-12-10T14:53:59.719Z,43.70
2022-12-10T14:56:29.376Z,46.43
2022-12-10T14:59:02.974Z,53.43
2022-12-10T15:01:31.772Z,51.50
2022-12-10T15:04:02.105Z,48.33
2022-12-10T15:06:33.676Z,51.60
2022-12-10T15:09:00.763Z,46.97
2022-12-10T15:11:28.784Z,53.97
2022-12-10T15:13:58.707Z,43.60
2022-12-10T15:16:31.657Z,54.67
2022-12-10T15:19:18.101Z,52.20
2022-12-10T15:21:46.930Z,50.77
2022-12-10T15:24:25.775Z,62.83
2022-12-10T15:26:52.722Z,44.17
2022-12-10T15:29:34.724Z,58.70
2022-12-10T15:32:10.091Z,57.80
2022-12-10T15:34:41.641Z,48.30
2022-12-10T15:37:18.576Z,55.00
2022-12-10T15:39:48.342Z,56.10
2022-12-10T15:42:37.918Z,57.93
2022-12-10T15:45:15.422Z,52.63
2022-12-10T15:47:44.230Z,74.37
2022-12-10T15:50:11.425Z,58.30
2022-12-10T15:52:39.294Z,71.23
2022-12-10T15:55:07.304Z,68.70
2022-12-10T15:57:36.534Z,65.07
2022-12-10T16:00:08.633Z,57.87
2022-12-10T16:02:37.933Z,62.80
2022-12-10T16:05:12.612Z,55.30
2022-12-10T16:07:40.052Z,64.70
2022-12-10T16:10:08.574Z,71.20
2022-12-10T16:12:40.334Z,69.53
2022-12-10T16:15:15.532Z,66.23
2022-12-10T16:17:42.897Z,68.83
2022-12-10T16:20:19.361Z,79.20
2022-12-10T16:22:47.214Z,61.30
2022-12-10T16:25:14.643Z,80.10
2022-12-10T16:27:42.895Z,79.10
2022-12-10T16:30:17.004Z,72.90
2022-12-10T16:32:44.328Z,69.37
2022-12-10T16:35:14.197Z,64.07
2022-12-10T16:37:43.047Z,65.87
2022-12-10T16:40:11.470Z,73.60
2022-12-10T16:42:38.687Z,79.70
2022-12-10T16:45:13.737Z,82.23
2022-12-10T16:47:40.748Z,79.23
2022-12-10T16:50:08.342Z,79.90
2022-12-10T16:52:35.556Z,74.27
2022-12-10T16:55:02.745Z,85.83
2022-12-10T16:57:35.307Z,76.73
2022-12-10T17:00:03.668Z,71.17
2022-12-10T17:02:31.024Z,77.80
2022-12-10T17:04:58.009Z,81.97
2022-12-10T17:07:25.273Z,84.83
2022-12-10T17:09:53.514Z,94.17
2022-12-10T17:12:23.389Z,84.33
2022-12-10T17:14:50.604Z,70.73
2022-12-10T17:17:17.721Z,79.40
2022-12-10T17:19:44.727Z,86.40
2022-12-10T17:22:13.177Z,89.03
2022-12-10T17:24:40.224Z,90.67
2022-12-10T17:27:11.050Z,98.87
2022-12-10T17:29:40.701Z,77.93
2022-12-10T17:32:12.914Z,91.60
2022-12-10T17:34:39.552Z,81.43
2022-12-10T17:37:10.705Z,88.70
2022-12-10T17:39:37.613Z,82.67
2022-12-10T17:42:06.325Z,89.03
2022-12-10T17:44:32.937Z,81.47
2022-12-10T17:46:59.932Z,79.77
2022-12-10T17:49:27.217Z,84.67
2022-12-10T17:51:59.172Z,82.90
2022-12-10T17:54:26.214Z,94.00
2022-12-10T17:56:53.395Z,96.53
2022-12-10T17:59:20.345Z,85.60
2022-12-10T18:01:48.926Z,86.43
2022-12-10T18:04:16.133Z,99.23
2022-12-10T18:06:43.726Z,80.37
2022-12-10T18:09:11.335Z,95.50
2022-12-10T18:11:39.506Z,104.67
2022-12-10T18:14:06.465Z,91.10
2022-12-10T18:16:35.006Z,97.80
2022-12-10T18:19:04.184Z,105.93
2022-12-10T18:21:31.086Z,87.83
2022-12-10T18:23:58.365Z,99.33
2022-12-10T18:26:25.822Z,89.00
2022-12-10T18:28:54.120Z,95.00
2022-12-10T18:31:23.530Z,82.27
2022-12-10T18:33:52.572Z,101.00
2022-12-10T18:36:24.621Z,107.73
2022-12-10T18:38:53.556Z,119.90
2022-12-10T18:41:21.364Z,98.37
2022-12-10T18:43:48.510Z,98.53
2022-12-10T18:46:18.584Z,87.73
2022-12-10T18:48:45.755Z,85.30
2022-12-10T18:51:14.470Z,96.70
2022-12-10T18:53:41.488Z,105.47
2022-12-10T18:56:12.096Z,98.70
2022-12-10T18:58:39.407Z,106.70
2022-12-10T19:01:07.258Z,94.97
2022-12-10T19:03:34.212Z,92.97
2022-12-10T19:06:00.927Z,91.40
2022-12-10T19:08:29.251Z,78.57
2022-12-10T19:10:56.139Z,89.80
2022-12-10T19:13:23.030Z,91.93
2022-12-10T19:15:51.879Z,85.13
2022-12-10T19:18:19.023Z,89.03
2022-12-10T19:20:46.893Z,91.80
2022-12-10T19:23:13.638Z,97.20
2022-12-10T19:25:40.341Z,77.17
2022-12-10T19:28:07.256Z,82.47
2022-12-10T19:30:34.243Z,82.53
2022-12-10T19:33:02.058Z,68.00
2022-12-10T19:35:28.831Z,72.50
2022-12-10T19:37:57.959Z,77.17
2022-12-10T19:40:29.276Z,80.13
2022-12-10T19:42:56.638Z,75.93
2022-12-10T19:45:23.730Z,83.97
2022-12-10T19:47:53.549Z,81.83
2022-12-10T19:50:23.967Z,83.93
2022-12-10T19:52:56.467Z,57.80
2022-12-10T19:55:25.870Z,84.30
2022-12-10T19:57:52.777Z,82.77
2022-12-10T20:00:24.149Z,78.47
2022-12-10T20:02:52.346Z,67.30
2022-12-10T20:05:24.048Z,62.97
2022-12-10T20:07:54.193Z,76.40
2022-12-10T20:10:25.055Z,86.40
2022-12-10T20:12:52.559Z,76.70
2022-12-10T20:15:21.146Z,81.73
2022-12-10T20:17:48.472Z,59.77
2022-12-10T20:20:19.571Z,80.23
2022-12-10T20:22:47.162Z,69.87
2022-12-10T20:25:14.701Z,67.90
2022-12-10T20:27:42.345Z,66.60
2022-12-10T20:30:15.657Z,74.13
2022-12-10T20:32:44.100Z,82.17
2022-12-10T20:35:12.370Z,69.13
2022-12-10T20:37:39.066Z,70.67
2022-12-10T20:40:30.755Z,76.80
2022-12-10T20:42:56.526Z,74.47
2022-12-10T20:45:26.473Z,63.87
2022-12-10T20:47:53.210Z,71.43
2022-12-10T20:50:19.997Z,81.13
2022-12-10T20:52:47.300Z,72.20
2022-12-10T20:55:16.338Z,74.27
2022-12-10T20:57:44.449Z,63.47
2022-12-10T21:00:16.941Z,70.03
2022-12-10T21:02:46.174Z,67.97
2022-12-10T21:05:14.898Z,72.77
2022-12-10T21:07:42.116Z,63.90
2022-12-10T21:10:34.201Z,71.20
2022-12-10T21:13:01.895Z,77.47
2022-12-10T21:15:29.066Z,70.10
2022-12-10T21:17:55.986Z,57.17
2022-12-10T21:20:28.707Z,60.97
2022-12-10T21:22:56.041Z,67.77
2022-12-10T21:25:22.912Z,67.80
2022-12-10T21:27:49.616Z,60.13
2022-12-10T21:30:18.368Z,61.53
2022-12-10T21:32:45.243Z,72.20
2022-12-10T21:35:12.299Z,62.00
2022-12-10T21:37:39.133Z,60.20
2022-12-10T21:40:06.837Z,58.50
2022-12-10T21:43:02.994Z,65.70
2022-12-10T21:45:31.629Z,60.27
2022-12-10T21:47:59.601Z,65.30
2022-12-10T21:50:26.561Z,59.37
2022-12-10T21:52:53.182Z,55.83
2022-12-10T21:55:22.182Z,58.83
2022-12-10T21:57:51.958Z,64.47
2022-12-10T22:00:18.840Z,55.23
2022-12-10T22:02:46.172Z,52.27
2022-12-10T22:05:13.717Z,49.60
2022-12-10T22:07:41.431Z,52.30
2022-12-10T22:10:10.587Z,45.07
2022-12-10T22:12:37.151Z,49.17
2022-12-10T22:15:04.874Z,45.97
2022-12-10T22:17:31.775Z,46.47
2022-12-10T22:20:05.471Z,54.67
2022-12-10T22:22:34.820Z,53.70
2022-12-10T22:25:01.740Z,48.63
2022-12-10T22:27:34.295Z,53.73
2022-12-10T22:30:02.751Z,47.83
2022-12-10T22:32:32.057Z,54.97
2022-12-10T22:34:59.321Z,62.17
2022-12-10T22:37:29.294Z,53.53
2022-12-10T22:39:56.107Z,67.53
2022-12-10T22:42:22.724Z,45.20
2022-12-10T22:44:52.559Z,56.37
2022-12-10T22:47:20.148Z,48.07
2022-12-10T22:49:47.232Z,58.57
2022-12-10T22:52:14.743Z,50.00
2022-12-10T22:54:41.337Z,49.70
2022-12-10T22:57:08.897Z,50.40
2022-12-10T22:59:36.489Z,47.70
2022-12-10T23:02:03.539Z,52.80
2022-12-10T23:04:30.294Z,46.10
2022-12-10T23:06:58.106Z,54.90
2022-12-10T23:09:25.851Z,49.17
2022-12-10T23:12:10.440Z,44.63
2022-12-10T23:14:37.251Z,50.20
2022-12-10T23:17:03.916Z,43.60
2022-12-10T23:19:30.722Z,46.80
2022-12-10T23:21:58.193Z,41.93
2022-12-10T23:24:25.648Z,39.23
2022-12-10T23:26:52.274Z,45.77
2022-12-10T23:29:18.931Z,43.60
2022-12-10T23:31:45.680Z,46.90
2022-12-10T23:34:12.333Z,38.40
2022-12-10T23:36:39.116Z,42.20
2022-12-10T23:39:05.845Z,44.23
2022-12-10T23:41:33.153Z,43.17
2022-12-10T23:43:59.721Z,47.37
2022-12-10T23:46:27.593Z,44.60
2022-12-10T23:48:54.283Z,42.73
2022-12-10T23:51:21.079Z,50.03
2022-12-10T23:53:47.712Z,45.37
2022-12-10T23:56:17.267Z,38.73
2022-12-10T23:58:45.753Z,50.33
